Time,TemperatureF,DewpointF,PressureIn,WindDirection,WindDirectionDegrees,WindSpeedMPH,WindSpeedGustMPH,Humidity,HourlyPrecipIn,Conditions,Clouds,dailyrainin,SoftwareType,DateUTC
2013-03-23 00:00:00,25.3,16.3,30.24,NNW,345,0.0,1.0,68,0.00,,,0.00,meteohub,2013-03-23 05:00:00,
2013-03-23 00:05:00,25.3,16.3,30.24,NNW,346,0.0,1.0,68,0.00,,,0.00,meteohub,2013-03-23 05:05:00,
2013-03-23 00:10:00,25.2,16.2,30.24,NNW,346,0.0,0.0,68,0.00,,,0.00,meteohub,2013-03-23 05:10:00,
2013-03-23 00:15:00,25.0,16.3,30.24,NNW,345,0.0,0.0,69,0.00,,,0.00,meteohub,2013-03-23 05:15:00,
2013-03-23 00:20:00,24.8,16.2,30.24,NNW,346,0.0,1.0,69,0.00,,,0.00,meteohub,2013-03-23 05:20:00,
2013-03-23 00:25:00,24.4,16.0,30.24,NNW,346,0.0,1.0,70,0.00,,,0.00,meteohub,2013-03-23 05:25:00,
2013-03-23 00:30:00,24.3,16.0,30.24,NNW,345,0.0,0.0,70,0.00,,,0.00,meteohub,2013-03-23 05:30:00,
2013-03-23 00:36:00,24.4,16.0,30.23,NNW,346,0.0,1.0,70,0.00,,,0.00,meteohub,2013-03-23 05:36:00,
2013-03-23 00:41:00,24.4,16.0,30.23,NNW,345,0.0,1.0,70,0.00,,,0.00,meteohub,2013-03-23 05:41:00,
2013-03-23 00:46:00,24.1,15.8,30.23,NNW,346,0.0,1.0,70,0.00,,,0.00,meteohub,2013-03-23 05:46:00,
2013-03-23 00:51:00,23.7,15.6,30.24,NNW,346,0.0,1.0,71,0.00,,,0.00,meteohub,2013-03-23 05:51:00,
2013-03-23 00:56:00,23.4,15.6,30.24,NNW,346,0.0,1.0,72,0.00,,,0.00,meteohub,2013-03-23 05:56:00,
2013-03-23 01:01:00,23.2,15.4,30.24,NNW,346,0.0,1.0,72,0.00,,,0.00,meteohub,2013-03-23 06:01:00,
2013-03-23 01:06:00,22.8,15.4,30.24,NNW,346,0.0,2.0,73,0.00,,,0.00,meteohub,2013-03-23 06:06:00,
2013-03-23 01:11:00,22.8,15.8,30.24,NNW,345,0.0,2.0,74,0.00,,,0.00,meteohub,2013-03-23 06:11:00,
2013-03-23 01:17:00,23.2,16.2,30.23,NNW,345,0.0,2.0,74,0.00,,,0.00,meteohub,2013-03-23 06:17:00,
2013-03-23 01:22:00,23.4,16.3,30.23,NNW,346,0.0,1.0,74,0.00,,,0.00,meteohub,2013-03-23 06:22:00,
2013-03-23 01:27:00,23.4,16.0,30.23,NNW,345,0.0,1.0,73,0.00,,,0.00,meteohub,2013-03-23 06:27:00,
2013-03-23 01:32:00,23.4,16.0,30.22,NNW,346,0.0,0.0,73,0.00,,,0.00,meteohub,2013-03-23 06:32:00,
2013-03-23 01:37:00,23.0,15.6,30.22,NNW,346,0.0,0.0,73,0.00,,,0.00,meteohub,2013-03-23 06:37:00,
2013-03-23 01:42:00,22.6,15.3,30.22,NNW,346,0.0,0.0,73,0.00,,,0.00,meteohub,2013-03-23 06:42:00,
2013-03-23 01:47:00,22.3,14.9,30.21,NNW,345,0.0,0.0,73,0.00,,,0.00,meteohub,2013-03-23 06:47:00,
2013-03-23 01:52:00,21.7,14.7,30.22,NNW,346,0.0,0.0,74,0.00,,,0.00,meteohub,2013-03-23 06:52:00,
2013-03-23 01:57:00,21.2,14.2,30.22,NNW,346,0.0,1.0,74,0.00,,,0.00,meteohub,2013-03-23 06:57:00,
2013-03-23 02:02:00,21.0,14.7,30.22,NNW,345,0.0,1.0,76,0.00,,,0.00,meteohub,2013-03-23 07:02:00,
2013-03-23 02:07:00,20.8,14.5,30.22,NNW,345,0.0,1.0,76,0.00,,,0.00,meteohub,2013-03-23 07:07:00,
2013-03-23 02:12:00,20.5,14.2,30.22,NNW,346,0.0,1.0,76,0.00,,,0.00,meteohub,2013-03-23 07:12:00,
2013-03-23 02:17:00,20.3,14.0,30.22,NNW,345,0.0,0.0,76,0.00,,,0.00,meteohub,2013-03-23 07:17:00,
2013-03-23 02:22:00,19.8,13.5,30.22,NNW,346,0.0,0.0,76,0.00,,,0.00,meteohub,2013-03-23 07:22:00,
2013-03-23 02:27:00,19.6,13.6,30.22,NNW,345,0.0,0.0,77,0.00,,,0.00,meteohub,2013-03-23 07:27:00,
2013-03-23 02:32:00,19.4,13.5,30.23,NNW,346,0.0,0.0,77,0.00,,,0.00,meteohub,2013-03-23 07:32:00,
2013-03-23 02:37:00,19.0,13.3,30.23,NNW,345,0.0,0.0,78,0.00,,,0.00,meteohub,2013-03-23 07:37:00,
2013-03-23 02:42:00,18.9,13.1,30.23,NNW,346,0.0,0.0,78,0.00,,,0.00,meteohub,2013-03-23 07:42:00,
2013-03-23 02:47:00,18.5,12.7,30.22,NNW,346,1.0,3.0,78,0.00,,,0.00,meteohub,2013-03-23 07:47:00,
2013-03-23 02:52:00,18.3,12.9,30.22,NNW,346,0.0,3.0,79,0.00,,,0.00,meteohub,2013-03-23 07:52:00,
2013-03-23 02:58:00,18.3,12.9,30.22,NNW,345,0.0,3.0,79,0.00,,,0.00,meteohub,2013-03-23 07:58:00,
2013-03-23 03:03:00,18.7,13.5,30.21,NNW,346,0.0,3.0,80,0.00,,,0.00,meteohub,2013-03-23 08:03:00,
2013-03-23 03:08:00,19.2,14.0,30.21,NNW,346,0.0,2.0,80,0.00,,,0.00,meteohub,2013-03-23 08:08:00,
2013-03-23 03:13:00,19.8,14.4,30.22,NNW,346,0.0,1.0,79,0.00,,,0.00,meteohub,2013-03-23 08:13:00,
2013-03-23 03:18:00,19.0,13.3,30.24,NNW,345,0.0,2.0,78,0.00,,,0.00,meteohub,2013-03-23 08:18:00,
2013-03-23 03:23:00,18.0,12.0,30.25,NNW,346,0.0,2.0,77,0.00,,,0.00,meteohub,2013-03-23 08:23:00,
2013-03-23 03:28:00,17.6,12.2,30.25,NNW,345,1.0,3.0,79,0.00,,,0.00,meteohub,2013-03-23 08:28:00,
2013-03-23 03:33:00,17.4,12.0,30.25,NNW,346,1.0,3.0,79,0.00,,,0.00,meteohub,2013-03-23 08:33:00,
2013-03-23 03:38:00,17.4,12.0,30.25,NNW,346,0.0,3.0,79,0.00,,,0.00,meteohub,2013-03-23 08:38:00,
2013-03-23 03:43:00,17.2,12.2,30.25,NNW,346,1.0,2.0,80,0.00,,,0.00,meteohub,2013-03-23 08:43:00,
2013-03-23 03:48:00,17.6,12.6,30.24,NNW,346,0.0,2.0,80,0.00,,,0.00,meteohub,2013-03-23 08:48:00,
2013-03-23 03:53:00,17.8,12.7,30.25,NNW,345,0.0,2.0,80,0.00,,,0.00,meteohub,2013-03-23 08:53:00,
2013-03-23 03:58:00,17.4,12.4,30.25,NNW,345,0.0,1.0,80,0.00,,,0.00,meteohub,2013-03-23 08:58:00,
2013-03-23 04:03:00,17.6,12.6,30.25,NNW,346,0.0,1.0,80,0.00,,,0.00,meteohub,2013-03-23 09:03:00,
2013-03-23 04:08:00,17.4,12.4,30.25,NNW,345,0.0,1.0,80,0.00,,,0.00,meteohub,2013-03-23 09:08:00,
2013-03-23 04:13:00,16.9,11.8,30.25,NNW,346,0.0,2.0,80,0.00,,,0.00,meteohub,2013-03-23 09:13:00,
2013-03-23 04:18:00,16.9,11.8,30.25,NNW,346,0.0,2.0,80,0.00,,,0.00,meteohub,2013-03-23 09:18:00,
2013-03-23 04:23:00,16.9,12.0,30.26,NNW,346,0.0,2.0,81,0.00,,,0.00,meteohub,2013-03-23 09:23:00,
2013-03-23 04:28:00,16.9,12.0,30.26,NNW,345,0.0,2.0,81,0.00,,,0.00,meteohub,2013-03-23 09:28:00,
2013-03-23 04:33:00,16.9,12.0,30.26,NNW,345,1.0,2.0,81,0.00,,,0.00,meteohub,2013-03-23 09:33:00,
2013-03-23 04:38:00,16.7,11.8,30.27,NNW,345,1.0,2.0,81,0.00,,,0.00,meteohub,2013-03-23 09:38:00,
2013-03-23 04:43:00,16.9,12.0,30.27,NNW,345,0.0,3.0,81,0.00,,,0.00,meteohub,2013-03-23 09:43:00,
2013-03-23 04:48:00,16.7,11.8,30.27,NNW,346,0.0,3.0,81,0.00,,,0.00,meteohub,2013-03-23 09:48:00,
2013-03-23 04:53:00,16.7,11.8,30.27,NNW,346,0.0,3.0,81,0.00,,,0.00,meteohub,2013-03-23 09:53:00,
2013-03-23 04:58:00,16.5,11.7,30.27,NNW,346,0.0,2.0,81,0.00,,,0.00,meteohub,2013-03-23 09:58:00,
2013-03-23 05:03:00,16.3,11.5,30.27,NNW,345,1.0,2.0,81,0.00,,,0.00,meteohub,2013-03-23 10:03:00,
2013-03-23 05:08:00,16.5,12.0,30.27,NNW,346,1.0,2.0,82,0.00,,,0.00,meteohub,2013-03-23 10:08:00,
2013-03-23 05:13:00,16.5,12.0,30.27,NNW,345,1.0,2.0,82,0.00,,,0.00,meteohub,2013-03-23 10:13:00,
2013-03-23 05:18:00,16.3,11.8,30.27,NNW,346,0.0,2.0,82,0.00,,,0.00,meteohub,2013-03-23 10:18:00,
2013-03-23 05:23:00,16.3,11.8,30.27,NNW,346,0.0,2.0,82,0.00,,,0.00,meteohub,2013-03-23 10:23:00,
2013-03-23 05:28:00,16.2,11.7,30.27,NNW,345,0.0,2.0,82,0.00,,,0.00,meteohub,2013-03-23 10:28:00,
2013-03-23 05:33:00,16.0,11.5,30.27,NNW,346,1.0,2.0,82,0.00,,,0.00,meteohub,2013-03-23 10:33:00,
2013-03-23 05:38:00,15.6,11.1,30.27,NNW,345,2.0,2.0,82,0.00,,,0.00,meteohub,2013-03-23 10:38:00,
2013-03-23 05:43:00,15.6,11.1,30.27,NNW,345,0.0,3.0,82,0.00,,,0.00,meteohub,2013-03-23 10:43:00,
2013-03-23 05:48:00,15.6,11.1,30.27,NNW,346,0.0,3.0,82,0.00,,,0.00,meteohub,2013-03-23 10:48:00,
2013-03-23 05:53:00,15.6,11.1,30.27,NNW,346,0.0,3.0,82,0.00,,,0.00,meteohub,2013-03-23 10:53:00,
2013-03-23 05:58:00,15.4,11.1,30.27,NNW,345,0.0,1.0,83,0.00,,,0.00,meteohub,2013-03-23 10:58:00,
2013-03-23 06:03:00,14.9,10.4,30.27,NNW,345,0.0,0.0,82,0.00,,,0.00,meteohub,2013-03-23 11:03:00,
2013-03-23 06:08:00,14.2,9.7,30.27,NNW,345,0.0,0.0,82,0.00,,,0.00,meteohub,2013-03-23 11:08:00,
2013-03-23 06:14:00,13.8,9.3,30.26,NNW,346,0.0,0.0,82,0.00,,,0.00,meteohub,2013-03-23 11:14:00,
2013-03-23 06:19:00,13.5,9.0,30.27,NNW,345,0.0,0.0,82,0.00,,,0.00,meteohub,2013-03-23 11:19:00,
2013-03-23 06:24:00,13.5,9.3,30.26,NNW,346,0.0,0.0,83,0.00,,,0.00,meteohub,2013-03-23 11:24:00,
2013-03-23 06:29:00,13.3,9.1,30.26,NNW,346,0.0,0.0,83,0.00,,,0.00,meteohub,2013-03-23 11:29:00,
2013-03-23 06:34:00,13.1,9.0,30.26,NNW,346,0.0,0.0,83,0.00,,,0.00,meteohub,2013-03-23 11:34:00,
2013-03-23 06:39:00,12.9,8.8,30.25,NNW,346,0.0,0.0,83,0.00,,,0.00,meteohub,2013-03-23 11:39:00,
2013-03-23 06:44:00,12.7,8.6,30.25,NNW,346,0.0,0.0,83,0.00,,,0.00,meteohub,2013-03-23 11:44:00,
2013-03-23 06:49:00,12.4,8.2,30.25,NNW,345,0.0,0.0,83,0.00,,,0.00,meteohub,2013-03-23 11:49:00,
2013-03-23 06:54:00,12.0,7.9,30.25,NNW,346,0.0,0.0,83,0.00,,,0.00,meteohub,2013-03-23 11:54:00,
2013-03-23 06:59:00,11.8,7.9,30.25,NNW,346,1.0,0.0,84,0.00,,,0.00,meteohub,2013-03-23 11:59:00,
2013-03-23 07:04:00,11.1,7.0,30.26,NNW,345,0.0,1.0,83,0.00,,,0.00,meteohub,2013-03-23 12:04:00,
2013-03-23 07:09:00,10.9,7.0,30.26,NNW,346,0.0,2.0,84,0.00,,,0.00,meteohub,2013-03-23 12:09:00,
2013-03-23 07:14:00,10.9,7.0,30.26,NNW,345,0.0,2.0,84,0.00,,,0.00,meteohub,2013-03-23 12:14:00,
2013-03-23 07:19:00,10.9,7.0,30.27,NNW,346,0.0,2.0,84,0.00,,,0.00,meteohub,2013-03-23 12:19:00,
2013-03-23 07:24:00,10.9,7.3,30.27,NNW,346,0.0,0.0,85,0.00,,,0.00,meteohub,2013-03-23 12:24:00,
2013-03-23 07:29:00,11.1,7.5,30.27,NNW,346,0.0,0.0,85,0.00,,,0.00,meteohub,2013-03-23 12:29:00,
2013-03-23 07:34:00,11.8,8.2,30.26,NNW,346,0.0,0.0,85,0.00,,,0.00,meteohub,2013-03-23 12:34:00,
2013-03-23 07:39:00,12.0,8.4,30.26,NNW,346,0.0,0.0,85,0.00,,,0.00,meteohub,2013-03-23 12:39:00,
2013-03-23 07:44:00,12.2,8.6,30.26,NNW,346,0.0,0.0,85,0.00,,,0.00,meteohub,2013-03-23 12:44:00,
2013-03-23 07:49:00,11.8,8.2,30.27,NNW,346,0.0,0.0,85,0.00,,,0.00,meteohub,2013-03-23 12:49:00,
2013-03-23 07:54:00,11.7,8.1,30.27,NNW,346,0.0,0.0,85,0.00,,,0.00,meteohub,2013-03-23 12:54:00,
2013-03-23 07:59:00,12.0,8.6,30.27,NNW,346,0.0,0.0,86,0.00,,,0.00,meteohub,2013-03-23 12:59:00,
2013-03-23 08:04:00,12.9,9.5,30.27,NNW,345,0.0,1.0,86,0.00,,,0.00,meteohub,2013-03-23 13:04:00,
2013-03-23 08:09:00,14.2,10.8,30.27,NNW,345,0.0,1.0,86,0.00,,,0.00,meteohub,2013-03-23 13:09:00,
2013-03-23 08:14:00,14.5,11.1,30.27,NNW,346,0.0,0.0,86,0.00,,,0.00,meteohub,2013-03-23 13:14:00,
2013-03-23 08:19:00,15.1,11.7,30.28,NNW,345,0.0,2.0,86,0.00,,,0.00,meteohub,2013-03-23 13:19:00,
2013-03-23 08:24:00,15.6,12.2,30.28,NNW,346,0.0,2.0,86,0.00,,,0.00,meteohub,2013-03-23 13:24:00,
2013-03-23 08:29:00,16.9,13.5,30.28,NNW,346,0.0,2.0,86,0.00,,,0.00,meteohub,2013-03-23 13:29:00,
2013-03-23 08:34:00,18.3,15.1,30.29,NNW,345,1.0,1.0,87,0.00,,,0.00,meteohub,2013-03-23 13:34:00,
2013-03-23 08:39:00,19.2,15.8,30.29,NNW,346,0.0,2.0,86,0.00,,,0.00,meteohub,2013-03-23 13:39:00,
2013-03-23 08:44:00,19.8,16.0,30.27,NNW,346,0.0,4.0,85,0.00,,,0.00,meteohub,2013-03-23 13:44:00,
2013-03-23 08:49:00,19.6,15.3,30.27,NNW,345,0.0,4.0,83,0.00,,,0.00,meteohub,2013-03-23 13:49:00,
2013-03-23 08:54:00,19.9,16.0,30.27,NNW,346,1.0,4.0,84,0.00,,,0.00,meteohub,2013-03-23 13:54:00,
2013-03-23 08:59:00,21.4,17.1,30.28,NNW,345,3.0,3.0,83,0.00,,,0.00,meteohub,2013-03-23 13:59:00,
2013-03-23 09:04:00,22.5,17.8,30.28,NNW,346,0.0,2.0,82,0.00,,,0.00,meteohub,2013-03-23 14:04:00,
2013-03-23 09:09:00,23.5,18.3,30.28,NNW,346,2.0,4.0,80,0.00,,,0.00,meteohub,2013-03-23 14:09:00,
2013-03-23 09:15:00,24.3,18.1,30.28,NNW,346,1.0,4.0,77,0.00,,,0.00,meteohub,2013-03-23 14:15:00,
2013-03-23 09:20:00,24.6,17.8,30.28,NNW,345,2.0,3.0,75,0.00,,,0.00,meteohub,2013-03-23 14:20:00,
2013-03-23 09:25:00,25.0,17.6,30.28,NNW,346,0.0,3.0,73,0.00,,,0.00,meteohub,2013-03-23 14:25:00,
2013-03-23 09:30:00,25.0,16.9,30.28,NNW,346,2.0,3.0,71,0.00,,,0.00,meteohub,2013-03-23 14:30:00,
2013-03-23 09:35:00,22.8,14.2,30.28,North,355,3.0,3.0,69,0.00,,,0.00,meteohub,2013-03-23 14:35:00,
2013-03-23 09:40:00,22.6,14.9,30.28,North,355,0.0,5.0,72,0.00,,,0.00,meteohub,2013-03-23 14:40:00,
2013-03-23 09:45:00,23.5,16.2,30.28,North,355,3.0,5.0,73,0.00,,,0.00,meteohub,2013-03-23 14:45:00,
2013-03-23 09:50:00,25.2,17.4,30.29,North,355,1.0,5.0,72,0.00,,,0.00,meteohub,2013-03-23 14:50:00,
2013-03-23 09:55:00,26.4,17.6,30.29,North,355,0.0,4.0,69,0.00,,,0.00,meteohub,2013-03-23 14:55:00,
2013-03-23 10:00:00,27.5,18.0,30.28,North,355,0.0,5.0,67,0.00,,,0.00,meteohub,2013-03-23 15:00:00,
2013-03-23 10:05:00,27.9,16.9,30.28,North,355,0.0,5.0,63,0.00,,,0.00,meteohub,2013-03-23 15:05:00,
2013-03-23 10:10:00,27.0,16.0,30.28,North,355,1.0,5.0,63,0.00,,,0.00,meteohub,2013-03-23 15:10:00,
2013-03-23 10:15:00,27.9,17.2,30.28,North,351,1.0,4.0,64,0.00,,,0.00,meteohub,2013-03-23 15:15:00,
2013-03-23 10:20:00,28.6,17.6,30.28,North,351,0.0,4.0,63,0.00,,,0.00,meteohub,2013-03-23 15:20:00,
2013-03-23 10:25:00,29.7,18.7,30.28,North,350,1.0,4.0,63,0.00,,,0.00,meteohub,2013-03-23 15:25:00,
2013-03-23 10:30:00,31.3,18.7,30.28,North,350,0.0,4.0,59,0.00,,,0.00,meteohub,2013-03-23 15:30:00,
2013-03-23 10:35:00,32.5,19.4,30.28,North,351,0.0,4.0,58,0.00,,,0.00,meteohub,2013-03-23 15:35:00,
2013-03-23 10:40:00,34.2,19.8,30.27,North,351,0.0,3.0,55,0.00,,,0.00,meteohub,2013-03-23 15:40:00,
2013-03-23 10:45:00,32.4,16.7,30.28,North,355,0.0,3.0,52,0.00,,,0.00,meteohub,2013-03-23 15:45:00,
2013-03-23 10:50:00,32.0,18.9,30.28,North,355,0.0,4.0,58,0.00,,,0.00,meteohub,2013-03-23 15:50:00,
2013-03-23 10:55:00,34.2,20.5,30.28,North,355,0.0,4.0,57,0.00,,,0.00,meteohub,2013-03-23 15:55:00,
2013-03-23 11:00:00,35.1,19.2,30.28,North,355,0.0,4.0,52,0.00,,,0.00,meteohub,2013-03-23 16:00:00,
2013-03-23 11:05:00,35.8,19.9,30.28,North,355,0.0,1.0,52,0.00,,,0.00,meteohub,2013-03-23 16:05:00,
2013-03-23 11:10:00,37.0,20.7,30.28,North,355,0.0,1.0,51,0.00,,,0.00,meteohub,2013-03-23 16:10:00,
2013-03-23 11:15:00,37.9,19.9,30.29,North,355,0.0,1.0,48,0.00,,,0.00,meteohub,2013-03-23 16:15:00,
2013-03-23 11:20:00,38.3,20.3,30.29,North,355,0.0,3.0,48,0.00,,,0.00,meteohub,2013-03-23 16:20:00,
2013-03-23 11:25:00,38.8,19.8,30.29,North,355,2.0,4.0,46,0.00,,,0.00,meteohub,2013-03-23 16:25:00,
2013-03-23 11:30:00,38.8,19.8,30.29,North,351,3.0,5.0,46,0.00,,,0.00,meteohub,2013-03-23 16:30:00,
2013-03-23 11:35:00,39.2,19.6,30.29,North,350,3.0,5.0,45,0.00,,,0.00,meteohub,2013-03-23 16:35:00,
2013-03-23 11:40:00,38.7,19.6,30.29,North,351,2.0,5.0,46,0.00,,,0.00,meteohub,2013-03-23 16:40:00,
2013-03-23 11:45:00,38.8,19.4,30.29,North,350,3.0,5.0,45,0.00,,,0.00,meteohub,2013-03-23 16:45:00,
2013-03-23 11:50:00,38.5,19.0,30.29,NNW,331,5.0,7.0,45,0.00,,,0.00,meteohub,2013-03-23 16:50:00,
2013-03-23 11:55:00,37.8,18.9,30.29,NNW,328,3.0,7.0,46,0.00,,,0.00,meteohub,2013-03-23 16:55:00,
2013-03-23 12:00:00,37.8,19.4,30.29,NNW,327,4.0,7.0,47,0.00,,,0.00,meteohub,2013-03-23 17:00:00,
2013-03-23 12:05:00,38.3,19.4,30.29,NNW,327,1.0,7.0,46,0.00,,,0.00,meteohub,2013-03-23 17:05:00,
2013-03-23 12:10:00,39.0,19.4,30.29,NNW,327,2.0,7.0,45,0.00,,,0.00,meteohub,2013-03-23 17:10:00,
2013-03-23 12:15:00,39.2,19.6,30.29,NW,319,4.0,7.0,45,0.00,,,0.00,meteohub,2013-03-23 17:15:00,
2013-03-23 12:20:00,38.8,19.8,30.29,NW,318,5.0,7.0,46,0.00,,,0.00,meteohub,2013-03-23 17:20:00,
2013-03-23 12:25:00,38.5,19.6,30.29,NW,318,5.0,7.0,46,0.00,,,0.00,meteohub,2013-03-23 17:25:00,
2013-03-23 12:31:00,37.9,19.6,30.29,NW,317,4.0,10.0,47,0.00,,,0.00,meteohub,2013-03-23 17:31:00,
2013-03-23 12:36:00,37.6,19.2,30.29,NW,316,6.0,10.0,47,0.00,,,0.00,meteohub,2013-03-23 17:36:00,
2013-03-23 12:41:00,37.0,19.6,30.29,NW,315,5.0,10.0,49,0.00,,,0.00,meteohub,2013-03-23 17:41:00,
2013-03-23 12:46:00,36.7,19.4,30.28,NW,321,3.0,9.0,49,0.00,,,0.00,meteohub,2013-03-23 17:46:00,
2013-03-23 12:51:00,37.2,19.8,30.28,NW,321,3.0,9.0,49,0.00,,,0.00,meteohub,2013-03-23 17:51:00,
2013-03-23 12:56:00,37.8,19.8,30.28,NNW,327,4.0,8.0,48,0.00,,,0.00,meteohub,2013-03-23 17:56:00,
2013-03-23 13:01:00,38.3,19.8,30.28,NNW,328,2.0,7.0,47,0.00,,,0.00,meteohub,2013-03-23 18:01:00,
2013-03-23 13:07:00,38.3,19.8,30.27,NNW,332,0.0,7.0,47,0.00,,,0.00,meteohub,2013-03-23 18:07:00,
2013-03-23 13:12:00,38.7,19.6,30.27,NNW,331,2.0,6.0,46,0.00,,,0.00,meteohub,2013-03-23 18:12:00,
2013-03-23 13:17:00,36.1,17.4,30.27,North,0,3.0,7.0,46,0.00,,,0.00,meteohub,2013-03-23 18:17:00,
2013-03-23 13:22:00,34.3,17.2,30.27,NNE,13,0.0,7.0,49,0.00,,,0.00,meteohub,2013-03-23 18:22:00,
2013-03-23 13:27:00,34.2,18.3,30.27,NNE,12,1.0,7.0,52,0.00,,,0.00,meteohub,2013-03-23 18:27:00,
2013-03-23 13:32:00,34.0,18.7,30.27,NNE,13,4.0,9.0,53,0.00,,,0.00,meteohub,2013-03-23 18:32:00,
2013-03-23 13:37:00,35.1,18.3,30.27,NNE,17,0.0,9.0,50,0.00,,,0.00,meteohub,2013-03-23 18:37:00,
2013-03-23 13:42:00,35.8,19.0,30.27,NNE,14,4.0,9.0,50,0.00,,,0.00,meteohub,2013-03-23 18:42:00,
2013-03-23 13:47:00,35.2,18.5,30.27,North,10,4.0,7.0,50,0.00,,,0.00,meteohub,2013-03-23 18:47:00,
2013-03-23 13:52:00,34.7,18.5,30.27,NNE,14,0.0,7.0,51,0.00,,,0.00,meteohub,2013-03-23 18:52:00,
2013-03-23 13:57:00,35.1,18.3,30.27,North,0,3.0,7.0,50,0.00,,,0.00,meteohub,2013-03-23 18:57:00,
2013-03-23 14:02:00,34.9,18.1,30.26,North,0,1.0,7.0,50,0.00,,,0.00,meteohub,2013-03-23 19:02:00,
2013-03-23 14:07:00,35.8,19.9,30.26,NW,326,0.0,6.0,52,0.00,,,0.00,meteohub,2013-03-23 19:07:00,
2013-03-23 14:12:00,37.0,19.6,30.26,NW,325,6.0,7.0,49,0.00,,,0.00,meteohub,2013-03-23 19:12:00,
2013-03-23 14:17:00,37.6,19.2,30.26,NW,317,4.0,7.0,47,0.00,,,0.00,meteohub,2013-03-23 19:17:00,
2013-03-23 14:22:00,37.6,19.2,30.25,NW,317,1.0,7.0,47,0.00,,,0.00,meteohub,2013-03-23 19:22:00,
2013-03-23 14:27:00,37.8,18.9,30.25,NW,317,3.0,8.0,46,0.00,,,0.00,meteohub,2013-03-23 19:27:00,
2013-03-23 14:32:00,37.9,19.6,30.25,NW,317,4.0,8.0,47,0.00,,,0.00,meteohub,2013-03-23 19:32:00,
2013-03-23 14:37:00,38.3,19.4,30.25,NW,317,3.0,8.0,46,0.00,,,0.00,meteohub,2013-03-23 19:37:00,
2013-03-23 14:42:00,38.7,19.6,30.25,NW,317,3.0,7.0,46,0.00,,,0.00,meteohub,2013-03-23 19:42:00,
2013-03-23 14:47:00,38.7,19.2,30.24,NW,317,4.0,9.0,45,0.00,,,0.00,meteohub,2013-03-23 19:47:00,
2013-03-23 14:52:00,38.7,19.2,30.24,NW,317,7.0,9.0,45,0.00,,,0.00,meteohub,2013-03-23 19:52:00,
2013-03-23 14:57:00,38.7,19.6,30.24,NW,322,4.0,9.0,46,0.00,,,0.00,meteohub,2013-03-23 19:57:00,
2013-03-23 15:02:00,38.8,19.4,30.24,NW,316,6.0,7.0,45,0.00,,,0.00,meteohub,2013-03-23 20:02:00,
2013-03-23 15:07:00,38.5,19.0,30.24,NW,311,6.0,9.0,45,0.00,,,0.00,meteohub,2013-03-23 20:07:00,
2013-03-23 15:12:00,38.1,18.7,30.24,NW,315,5.0,9.0,45,0.00,,,0.00,meteohub,2013-03-23 20:12:00,
2013-03-23 15:17:00,38.1,19.6,30.24,NW,315,5.0,9.0,47,0.00,,,0.00,meteohub,2013-03-23 20:17:00,
2013-03-23 15:22:00,38.1,19.2,30.23,NW,315,6.0,10.0,46,0.00,,,0.00,meteohub,2013-03-23 20:22:00,
2013-03-23 15:27:00,37.9,19.6,30.23,NW,313,1.0,10.0,47,0.00,,,0.00,meteohub,2013-03-23 20:27:00,
2013-03-23 15:32:00,37.9,19.6,30.23,NW,313,2.0,10.0,47,0.00,,,0.00,meteohub,2013-03-23 20:32:00,
2013-03-23 15:37:00,37.6,19.6,30.23,NW,319,5.0,10.0,48,0.00,,,0.00,meteohub,2013-03-23 20:37:00,
2013-03-23 15:42:00,37.2,19.4,30.23,NW,317,5.0,9.0,48,0.00,,,0.00,meteohub,2013-03-23 20:42:00,
2013-03-23 15:48:00,37.2,19.8,30.23,NW,318,4.0,10.0,49,0.00,,,0.00,meteohub,2013-03-23 20:48:00,
2013-03-23 15:53:00,37.4,19.9,30.23,NW,319,3.0,10.0,49,0.00,,,0.00,meteohub,2013-03-23 20:53:00,
2013-03-23 15:58:00,37.2,19.8,30.23,NW,313,2.0,9.0,49,0.00,,,0.00,meteohub,2013-03-23 20:58:00,
2013-03-23 16:03:00,37.0,20.1,30.23,NW,315,4.0,8.0,50,0.00,,,0.00,meteohub,2013-03-23 21:03:00,
2013-03-23 16:08:00,37.0,19.6,30.23,NW,321,5.0,8.0,49,0.00,,,0.00,meteohub,2013-03-23 21:08:00,
2013-03-23 16:13:00,36.9,19.4,30.23,NNW,330,5.0,7.0,49,0.00,,,0.00,meteohub,2013-03-23 21:13:00,
2013-03-23 16:18:00,36.3,19.0,30.23,NNW,342,1.0,7.0,49,0.00,,,0.00,meteohub,2013-03-23 21:18:00,
2013-03-23 16:23:00,36.0,19.0,30.23,NNW,340,0.0,7.0,50,0.00,,,0.00,meteohub,2013-03-23 21:23:00,
2013-03-23 16:28:00,35.8,19.0,30.23,NNW,329,0.0,7.0,50,0.00,,,0.00,meteohub,2013-03-23 21:28:00,
2013-03-23 16:33:00,35.4,19.0,30.23,NNW,330,4.0,8.0,51,0.00,,,0.00,meteohub,2013-03-23 21:33:00,
2013-03-23 16:38:00,35.2,18.5,30.23,NNE,17,4.0,8.0,50,0.00,,,0.00,meteohub,2013-03-23 21:38:00,
2013-03-23 16:43:00,34.9,19.0,30.23,NW,322,8.0,8.0,52,0.00,,,0.00,meteohub,2013-03-23 21:43:00,
2013-03-23 16:48:00,34.9,19.0,30.23,NW,319,7.0,9.0,52,0.00,,,0.00,meteohub,2013-03-23 21:48:00,
2013-03-23 16:53:00,34.7,18.9,30.23,NNW,332,5.0,10.0,52,0.00,,,0.00,meteohub,2013-03-23 21:53:00,
2013-03-23 16:58:00,34.9,19.4,30.23,NW,326,4.0,11.0,53,0.00,,,0.00,meteohub,2013-03-23 21:58:00,
2013-03-23 17:03:00,35.1,19.6,30.23,NNW,346,3.0,11.0,53,0.00,,,0.00,meteohub,2013-03-23 22:03:00,
2013-03-23 17:08:00,35.1,19.2,30.23,NNW,344,2.0,11.0,52,0.00,,,0.00,meteohub,2013-03-23 22:08:00,
2013-03-23 17:13:00,35.4,19.6,30.23,NNW,335,1.0,10.0,52,0.00,,,0.00,meteohub,2013-03-23 22:13:00,
2013-03-23 17:18:00,35.4,19.6,30.23,NNW,336,2.0,9.0,52,0.00,,,0.00,meteohub,2013-03-23 22:18:00,
2013-03-23 17:23:00,34.7,19.4,30.23,NNE,24,2.0,9.0,53,0.00,,,0.00,meteohub,2013-03-23 22:23:00,
2013-03-23 17:28:00,33.8,19.4,30.23,NNE,32,5.0,9.0,55,0.00,,,0.00,meteohub,2013-03-23 22:28:00,
2013-03-23 17:33:00,33.6,19.2,30.23,North,9,5.0,9.0,55,0.00,,,0.00,meteohub,2013-03-23 22:33:00,
2013-03-23 17:38:00,34.0,19.6,30.24,North,9,0.0,7.0,55,0.00,,,0.00,meteohub,2013-03-23 22:38:00,
2013-03-23 17:43:00,34.2,19.2,30.24,NNE,14,5.0,6.0,54,0.00,,,0.00,meteohub,2013-03-23 22:43:00,
2013-03-23 17:48:00,34.0,19.6,30.24,NNE,28,6.0,9.0,55,0.00,,,0.00,meteohub,2013-03-23 22:48:00,
2013-03-23 17:53:00,33.8,18.9,30.24,NNE,23,5.0,9.0,54,0.00,,,0.00,meteohub,2013-03-23 22:53:00,
2013-03-23 17:58:00,34.0,19.0,30.24,ENE,67,9.0,10.0,54,0.00,,,0.00,meteohub,2013-03-23 22:58:00,
2013-03-23 18:03:00,33.6,19.2,30.23,North,355,2.0,11.0,55,0.00,,,0.00,meteohub,2013-03-23 23:03:00,
2013-03-23 18:08:00,33.6,19.2,30.24,North,9,2.0,11.0,55,0.00,,,0.00,meteohub,2013-03-23 23:08:00,
2013-03-23 18:13:00,33.6,18.7,30.24,North,355,5.0,11.0,54,0.00,,,0.00,meteohub,2013-03-23 23:13:00,
2013-03-23 18:18:00,33.4,18.5,30.24,NNW,340,6.0,10.0,54,0.00,,,0.00,meteohub,2013-03-23 23:18:00,
2013-03-23 18:23:00,33.6,18.7,30.24,North,9,2.0,10.0,54,0.00,,,0.00,meteohub,2013-03-23 23:23:00,
2013-03-23 18:28:00,33.4,19.0,30.24,NNE,19,3.0,10.0,55,0.00,,,0.00,meteohub,2013-03-23 23:28:00,
2013-03-23 18:33:00,33.6,19.6,30.24,NNE,15,4.0,7.0,56,0.00,,,0.00,meteohub,2013-03-23 23:33:00,
2013-03-23 18:38:00,33.4,19.4,30.24,North,355,2.0,6.0,56,0.00,,,0.00,meteohub,2013-03-23 23:38:00,
2013-03-23 18:43:00,33.3,20.1,30.24,NNW,344,1.0,6.0,58,0.00,,,0.00,meteohub,2013-03-23 23:43:00,
2013-03-23 18:48:00,33.1,20.7,30.24,NNW,342,0.0,6.0,60,0.00,,,0.00,meteohub,2013-03-23 23:48:00,
2013-03-23 18:53:00,32.7,20.8,30.24,NNW,342,2.0,6.0,61,0.00,,,0.00,meteohub,2013-03-23 23:53:00,
2013-03-23 18:58:00,32.4,20.8,30.24,NNW,337,0.0,6.0,62,0.00,,,0.00,meteohub,2013-03-23 23:58:00,
2013-03-23 19:03:00,31.8,20.7,30.24,NNW,337,2.0,6.0,63,0.00,,,0.00,meteohub,2013-03-24 00:03:00,
2013-03-23 19:08:00,31.5,20.7,30.24,NNW,337,0.0,6.0,64,0.00,,,0.00,meteohub,2013-03-24 00:08:00,
2013-03-23 19:13:00,31.1,20.7,30.24,NNW,337,1.0,5.0,65,0.00,,,0.00,meteohub,2013-03-24 00:13:00,
2013-03-23 19:18:00,30.7,20.7,30.24,NNW,339,0.0,4.0,66,0.00,,,0.00,meteohub,2013-03-24 00:18:00,
2013-03-23 19:23:00,30.6,20.8,30.24,NNW,339,0.0,4.0,67,0.00,,,0.00,meteohub,2013-03-24 00:23:00,
2013-03-23 19:28:00,30.4,21.0,30.24,NNW,340,0.0,4.0,68,0.00,,,0.00,meteohub,2013-03-24 00:28:00,
2013-03-23 19:34:00,30.2,20.8,30.24,NNW,345,0.0,4.0,68,0.00,,,0.00,meteohub,2013-03-24 00:34:00,
2013-03-23 19:39:00,30.0,21.0,30.24,NNW,345,3.0,4.0,69,0.00,,,0.00,meteohub,2013-03-24 00:39:00,
2013-03-23 19:44:00,29.8,20.8,30.25,NNW,346,0.0,4.0,69,0.00,,,0.00,meteohub,2013-03-24 00:44:00,
2013-03-23 19:49:00,29.8,21.2,30.25,NNW,345,1.0,4.0,70,0.00,,,0.00,meteohub,2013-03-24 00:49:00,
2013-03-23 19:54:00,29.7,21.0,30.25,NNW,345,1.0,4.0,70,0.00,,,0.00,meteohub,2013-03-24 00:54:00,
2013-03-23 19:59:00,29.5,20.8,30.25,NNW,346,1.0,3.0,70,0.00,,,0.00,meteohub,2013-03-24 00:59:00,
2013-03-23 20:04:00,29.3,20.7,30.25,NNW,345,2.0,3.0,70,0.00,,,0.00,meteohub,2013-03-24 01:04:00,
2013-03-23 20:09:00,29.1,20.8,30.25,NNW,345,0.0,2.0,71,0.00,,,0.00,meteohub,2013-03-24 01:09:00,
2013-03-23 20:14:00,28.9,20.7,30.25,NNW,346,0.0,2.0,71,0.00,,,0.00,meteohub,2013-03-24 01:14:00,
2013-03-23 20:19:00,28.9,21.0,30.25,NNW,345,0.0,3.0,72,0.00,,,0.00,meteohub,2013-03-24 01:19:00,
2013-03-23 20:24:00,28.8,20.8,30.25,NNW,345,2.0,3.0,72,0.00,,,0.00,meteohub,2013-03-24 01:24:00,
2013-03-23 20:29:00,28.8,21.2,30.25,NNW,346,0.0,3.0,73,0.00,,,0.00,meteohub,2013-03-24 01:29:00,
2013-03-23 20:34:00,28.8,21.2,30.25,NNW,345,0.0,4.0,73,0.00,,,0.00,meteohub,2013-03-24 01:34:00,
2013-03-23 20:39:00,28.6,21.0,30.25,NNW,346,0.0,4.0,73,0.00,,,0.00,meteohub,2013-03-24 01:39:00,
2013-03-23 20:44:00,28.2,20.7,30.25,NNW,346,0.0,4.0,73,0.00,,,0.00,meteohub,2013-03-24 01:44:00,
2013-03-23 20:49:00,28.0,20.8,30.25,NNW,346,0.0,2.0,74,0.00,,,0.00,meteohub,2013-03-24 01:49:00,
2013-03-23 20:54:00,27.9,20.7,30.25,NNW,345,0.0,2.0,74,0.00,,,0.00,meteohub,2013-03-24 01:54:00,
2013-03-23 20:59:00,27.7,20.8,30.25,NNW,346,0.0,2.0,75,0.00,,,0.00,meteohub,2013-03-24 01:59:00,
2013-03-23 21:04:00,27.7,20.8,30.25,NNW,345,0.0,2.0,75,0.00,,,0.00,meteohub,2013-03-24 02:04:00,
2013-03-23 21:09:00,27.9,21.0,30.25,NNW,346,0.0,2.0,75,0.00,,,0.00,meteohub,2013-03-24 02:09:00,
2013-03-23 21:14:00,27.9,21.0,30.25,NNW,345,2.0,4.0,75,0.00,,,0.00,meteohub,2013-03-24 02:14:00,
2013-03-23 21:19:00,27.9,21.0,30.25,NNW,345,2.0,4.0,75,0.00,,,0.00,meteohub,2013-03-24 02:19:00,
2013-03-23 21:24:00,27.9,21.0,30.25,NNW,346,3.0,4.0,75,0.00,,,0.00,meteohub,2013-03-24 02:24:00,
2013-03-23 21:29:00,27.9,21.2,30.25,NNW,346,0.0,4.0,76,0.00,,,0.00,meteohub,2013-03-24 02:29:00,
2013-03-23 21:34:00,27.7,21.0,30.25,NNW,346,0.0,5.0,76,0.00,,,0.00,meteohub,2013-03-24 02:34:00,
2013-03-23 21:39:00,27.7,21.0,30.25,NNW,345,0.0,5.0,76,0.00,,,0.00,meteohub,2013-03-24 02:39:00,
2013-03-23 21:44:00,27.7,20.8,30.25,NNW,346,0.0,5.0,75,0.00,,,0.00,meteohub,2013-03-24 02:44:00,
2013-03-23 21:49:00,27.3,20.8,30.25,NNW,345,0.0,3.0,76,0.00,,,0.00,meteohub,2013-03-24 02:49:00,
2013-03-23 21:54:00,27.3,20.8,30.25,NNW,345,0.0,3.0,76,0.00,,,0.00,meteohub,2013-03-24 02:54:00,
2013-03-23 21:59:00,27.1,20.7,30.25,NNW,346,1.0,3.0,76,0.00,,,0.00,meteohub,2013-03-24 02:59:00,
2013-03-23 22:04:00,27.1,20.7,30.25,NNW,346,0.0,3.0,76,0.00,,,0.00,meteohub,2013-03-24 03:04:00,
2013-03-23 22:09:00,27.0,20.7,30.25,NNW,345,0.0,4.0,77,0.00,,,0.00,meteohub,2013-03-24 03:09:00,
2013-03-23 22:14:00,27.0,20.7,30.25,NNW,346,1.0,4.0,77,0.00,,,0.00,meteohub,2013-03-24 03:14:00,
2013-03-23 22:19:00,27.0,20.7,30.25,NNW,345,0.0,4.0,77,0.00,,,0.00,meteohub,2013-03-24 03:19:00,
2013-03-23 22:24:00,27.0,20.7,30.25,NNW,346,0.0,3.0,77,0.00,,,0.00,meteohub,2013-03-24 03:24:00,
2013-03-23 22:29:00,27.0,20.7,30.25,NNW,345,0.0,3.0,77,0.00,,,0.00,meteohub,2013-03-24 03:29:00,
2013-03-23 22:34:00,27.1,20.8,30.25,NNW,346,0.0,3.0,77,0.00,,,0.00,meteohub,2013-03-24 03:34:00,
2013-03-23 22:39:00,27.0,20.7,30.25,NNW,346,0.0,2.0,77,0.00,,,0.00,meteohub,2013-03-24 03:39:00,
2013-03-23 22:44:00,26.8,20.5,30.25,NNW,346,0.0,4.0,77,0.00,,,0.00,meteohub,2013-03-24 03:44:00,
2013-03-23 22:49:00,26.8,20.8,30.25,NNW,346,0.0,4.0,78,0.00,,,0.00,meteohub,2013-03-24 03:49:00,
2013-03-23 22:54:00,26.6,20.7,30.25,NNW,345,0.0,3.0,78,0.00,,,0.00,meteohub,2013-03-24 03:54:00,
2013-03-23 22:59:00,26.4,20.5,30.25,NNW,345,0.0,2.0,78,0.00,,,0.00,meteohub,2013-03-24 03:59:00,
2013-03-23 23:00:00,26.4,20.5,30.25,NNW,346,0.0,2.0,78,0.00,,,0.00,meteohub,2013-03-24 04:00:00,
2013-03-23 23:05:00,26.4,20.8,30.25,NNW,346,0.0,2.0,79,0.00,,,0.00,meteohub,2013-03-24 04:05:00,
2013-03-23 23:10:00,26.2,20.7,30.25,NNW,346,0.0,2.0,79,0.00,,,0.00,meteohub,2013-03-24 04:10:00,
2013-03-23 23:16:00,26.2,20.7,30.25,NNW,346,0.0,2.0,79,0.00,,,0.00,meteohub,2013-03-24 04:16:00,
2013-03-23 23:21:00,26.4,20.8,30.25,NNW,346,0.0,1.0,79,0.00,,,0.00,meteohub,2013-03-24 04:21:00,
2013-03-23 23:26:00,26.6,21.0,30.25,NNW,345,1.0,2.0,79,0.00,,,0.00,meteohub,2013-03-24 04:26:00,
2013-03-23 23:31:00,26.6,21.0,30.25,NNW,346,0.0,2.0,79,0.00,,,0.00,meteohub,2013-03-24 04:31:00,
2013-03-23 23:36:00,26.8,21.2,30.24,NNW,346,1.0,2.0,79,0.00,,,0.00,meteohub,2013-03-24 04:36:00,
2013-03-23 23:41:00,26.8,21.2,30.24,NNW,346,0.0,2.0,79,0.00,,,0.00,meteohub,2013-03-24 04:41:00,
2013-03-23 23:46:00,26.8,21.2,30.24,NNW,346,0.0,2.0,79,0.00,,,0.00,meteohub,2013-03-24 04:46:00,
2013-03-23 23:51:00,26.8,21.2,30.24,NNW,346,0.0,3.0,79,0.00,,,0.00,meteohub,2013-03-24 04:51:00,
2013-03-23 23:57:00,26.8,21.2,30.24,NNW,346,0.0,3.0,79,0.00,,,0.00,meteohub,2013-03-24 04:57:00,